Time;durP1;ratioP1;P1;durP2;ratioP2;P2;SDS_P1;SDS_P2;PMS_P1;PMS_P2;Temp;Humidity;BMP_temperature;BMP_pressure;BME280_temperature;BME280_humidity;BME280_pressure;Samples;Min_cycle;Max_cycle;Signal;HPM_P1;HPM_P2
2022/06/05 00:02:45;;;;;;;7.58;3.47;;;;;;;17.35;55.52;99490.06;1738666;82;20930;-42
2022/06/05 00:05:45;;;;;;;3.90;2.90;;;;;;;17.35;55.13;99478.52;1738731;82;21018;-42
2022/06/05 00:08:41;;;;;;;3.65;2.87;;;;;;;17.34;54.99;99474.80;1739137;82;21507;-42
2022/06/05 00:11:09;;;;;;;3.00;2.50;;;;;;;17.30;54.81;99463.09;1738701;82;21906;-42
2022/06/05 00:13:53;;;;;;;3.37;2.60;;;;;;;17.27;54.97;99456.47;1738944;82;20996;-42
2022/06/05 00:16:24;;;;;;;3.40;2.72;;;;;;;17.29;54.86;99460.16;1738784;82;20927;-42
2022/06/05 00:18:51;;;;;;;4.35;2.85;;;;;;;17.29;54.96;99460.94;1738750;82;21038;-42
2022/06/05 00:21:19;;;;;;;3.08;2.70;;;;;;;17.32;54.79;99464.27;1738780;82;21046;-42
2022/06/05 00:23:46;;;;;;;3.70;3.02;;;;;;;17.34;54.68;99458.36;1738746;82;21134;-42
2022/06/05 00:26:27;;;;;;;4.80;3.20;;;;;;;17.36;54.74;99454.64;1738860;82;21272;-42
2022/06/05 00:29:32;;;;;;;4.90;3.08;;;;;;;17.37;54.39;99455.61;1718031;81;21066;-42
2022/06/05 00:32:28;;;;;;;3.40;2.65;;;;;;;17.38;54.46;99459.11;1738708;82;21082;-42
2022/06/05 00:34:55;;;;;;;4.20;2.90;;;;;;;17.37;54.50;99461.09;1737828;82;21552;-42
2022/06/05 00:37:47;;;;;;;4.40;3.08;;;;;;;17.39;54.30;99460.67;1738611;82;21131;-42
2022/06/05 00:40:55;;;;;;;3.35;2.60;;;;;;;17.44;54.25;99453.39;1729083;82;20978;-42
2022/06/05 00:43:23;;;;;;;4.40;2.60;;;;;;;17.45;54.24;99450.84;1697445;84;20994;-42
2022/06/05 00:45:51;;;;;;;4.67;2.67;;;;;;;17.44;54.45;99454.77;1697521;84;21042;-42
2022/06/05 00:48:18;;;;;;;2.83;2.58;;;;;;;17.46;54.62;99455.16;1717984;82;21085;-42
2022/06/05 00:50:47;;;;;;;3.15;2.70;;;;;;;17.49;54.56;99446.11;1737004;81;23139;-42
2022/06/05 00:53:14;;;;;;;3.37;2.90;;;;;;;17.49;54.43;99447.48;1727882;83;21042;-42
2022/06/05 00:55:48;;;;;;;3.22;2.70;;;;;;;17.50;54.34;99443.56;1723173;83;20971;-42
2022/06/05 00:58:15;;;;;;;4.03;2.70;;;;;;;17.52;54.41;99442.58;1728009;83;20943;-42
2022/06/05 01:00:52;;;;;;;5.22;3.00;;;;;;;17.53;54.64;99442.75;1728179;81;21002;-42
2022/06/05 01:03:19;;;;;;;2.90;2.58;;;;;;;17.55;54.34;99440.39;1727672;83;21221;-42
2022/06/05 01:05:46;;;;;;;4.12;2.90;;;;;;;17.57;54.44;99437.26;1727562;83;20927;-42
2022/06/05 01:08:14;;;;;;;4.37;2.65;;;;;;;17.57;54.46;99436.64;1723004;83;21042;-42
2022/06/05 01:11:06;;;;;;;4.53;2.95;;;;;;;17.59;54.35;99437.05;1727542;83;21055;-42
2022/06/05 01:14:19;;;;;;;3.30;2.75;;;;;;;17.59;54.43;99437.05;1715809;83;21736;-42
2022/06/05 01:17:06;;;;;;;2.90;2.60;;;;;;;17.59;54.73;99439.80;1727574;83;21246;-42
2022/06/05 01:19:53;;;;;;;5.08;3.15;;;;;;;17.58;55.53;99439.58;1727441;82;21528;-42
2022/06/05 01:22:51;;;;;;;3.65;2.67;;;;;;;17.59;55.67;99439.02;1642176;82;21122;-43
2022/06/05 01:25:53;;;;;;;2.87;2.58;;;;;;;17.60;55.49;99443.32;1727450;83;21373;-42
2022/06/05 01:28:25;;;;;;;4.10;2.87;;;;;;;17.59;55.48;99445.28;1727639;83;21584;-42
2022/06/05 01:31:18;;;;;;;4.53;2.80;;;;;;;17.59;55.88;99449.39;1727525;83;21540;-42
2022/06/05 01:33:54;;;;;;;5.28;2.60;;;;;;;17.58;56.41;99450.55;1686059;82;21034;-42
2022/06/05 01:36:39;;;;;;;4.92;2.80;;;;;;;17.57;56.45;99446.23;1727496;82;21011;-42
2022/06/05 01:39:14;;;;;;;3.95;2.60;;;;;;;17.58;55.79;99442.91;1727677;83;21000;-42
2022/06/05 01:41:47;;;;;;;4.20;3.00;;;;;;;17.59;56.04;99442.54;1727908;82;21062;-42
2022/06/05 01:44:21;;;;;;;3.55;2.67;;;;;;;17.59;56.13;99440.39;1726998;82;21995;-42
2022/06/05 01:46:48;;;;;;;3.25;2.95;;;;;;;17.59;56.08;99435.69;1725756;82;21026;-42
2022/06/05 01:49:37;;;;;;;5.17;2.70;;;;;;;17.59;56.44;99434.31;1727768;83;21608;-42
2022/06/05 01:52:19;;;;;;;3.43;2.57;;;;;;;17.61;56.29;99438.03;1741550;81;21015;-42
2022/06/05 01:55:19;;;;;;;4.45;2.50;;;;;;;17.62;56.46;99434.11;1753961;81;21011;-42
2022/06/05 01:57:46;;;;;;;;;;;;;;;17.62;56.41;99423.91;1756784;81;21162;-42
2022/06/05 02:00:17;;;;;;;2.42;2.22;;;;;;;17.62;56.40;99423.91;1754047;81;20327;-42
2022/06/05 02:02:56;;;;;;;4.55;2.60;;;;;;;17.52;56.82;99422.03;1753830;81;21556;-42
2022/06/05 02:05:37;;;;;;;3.00;2.40;;;;;;;17.55;56.88;99428.06;1753863;81;21047;-42
2022/06/05 02:08:25;;;;;;;3.52;2.42;;;;;;;17.58;56.44;99423.13;1753999;81;21038;-42
2022/06/05 02:10:59;;;;;;;4.80;2.85;;;;;;;17.58;56.39;99417.64;1746364;81;21319;-42
2022/06/05 02:13:26;;;;;;;6.00;2.80;;;;;;;17.57;56.05;99415.33;1685913;85;21035;-42
2022/06/05 02:15:53;;;;;;;4.37;2.67;;;;;;;17.59;56.26;99420.61;1686165;85;21538;-42
2022/06/05 02:18:20;;;;;;;6.50;2.60;;;;;;;17.60;56.72;99416.69;1686194;85;21016;-42
2022/06/05 02:20:49;;;;;;;3.52;2.40;;;;;;;17.61;56.99;99412.77;1686230;85;21009;-42
2022/06/05 02:23:21;;;;;;;5.70;2.70;;;;;;;17.63;57.19;99419.98;1685848;85;21093;-43
2022/06/05 02:25:49;;;;;;;3.70;2.50;;;;;;;17.62;57.20;99414.30;1686475;85;21031;-42
2022/06/05 02:28:18;;;;;;;3.40;2.40;;;;;;;17.62;57.31;99412.94;1720920;82;21033;-42
2022/06/05 02:31:27;;;;;;;3.05;2.50;;;;;;;17.64;57.66;99413.91;1686557;84;21088;-43
2022/06/05 02:34:17;;;;;;;3.10;2.47;;;;;;;17.63;58.19;99411.76;1686480;85;21048;-43
2022/06/05 02:37:20;;;;;;;4.37;2.70;;;;;;;17.61;58.43;99409.25;1721060;83;21244;-42
2022/06/05 02:40:32;;;;;;;4.78;2.72;;;;;;;17.66;58.76;99406.85;1721084;83;21047;-42
2022/06/05 02:43:38;;;;;;;10.65;3.02;;;;;;;17.67;58.56;99406.27;1686309;84;20985;-42
2022/06/05 02:46:16;;;;;;;4.30;2.90;;;;;;;17.67;58.28;99398.04;1686045;85;21472;-42
2022/06/05 02:49:16;;;;;;;5.13;2.97;;;;;;;17.70;58.35;99398.00;1686641;85;21581;-42
2022/06/05 02:51:44;;;;;;;6.25;3.10;;;;;;;17.73;58.63;99405.98;1722056;83;21154;-43
2022/06/05 02:54:24;;;;;;;5.10;3.17;;;;;;;17.77;58.67;99408.10;1726143;83;21008;-42
2022/06/05 02:56:51;;;;;;;4.62;2.75;;;;;;;17.79;58.39;99413.97;1691435;84;21024;-43
2022/06/05 02:59:18;;;;;;;3.75;2.60;;;;;;;17.81;58.39;99412.98;1691520;84;21076;-42
2022/06/05 03:04:32;;;;;;;3.12;2.60;;;;;;;17.86;57.63;99413.14;1670069;84;21167;-42
2022/06/05 03:06:59;;;;;;;4.10;2.40;;;;;;;17.88;57.82;99413.48;1691716;84;21031;-42
2022/06/05 03:09:27;;;;;;;8.33;2.87;;;;;;;17.85;57.70;99407.45;1691586;84;20945;-42
2022/06/05 03:11:54;;;;;;;6.33;2.60;;;;;;;17.85;57.74;99414.31;1691682;84;21293;-42
2022/06/05 03:14:21;;;;;;;3.50;2.60;;;;;;;17.85;58.22;99410.98;1691422;84;21480;-42
2022/06/05 03:16:48;;;;;;;5.87;2.80;;;;;;;17.84;58.16;99414.91;1691691;84;21265;-42
2022/06/05 03:19:15;;;;;;;4.17;2.47;;;;;;;17.84;58.21;99408.64;1691569;84;21039;-42
2022/06/05 03:21:43;;;;;;;5.05;2.58;;;;;;;17.84;58.27;99412.75;1691408;84;20976;-42
2022/06/05 03:24:10;;;;;;;4.35;2.70;;;;;;;17.85;58.52;99413.73;1714971;83;21012;-42
2022/06/05 03:26:37;;;;;;;3.12;2.50;;;;;;;17.88;59.07;99414.86;1720332;83;20964;-42
2022/06/05 03:29:07;;;;;;;4.10;2.25;;;;;;;17.91;59.03;99422.30;1720280;83;21198;-43
2022/06/05 03:31:35;;;;;;;3.42;2.60;;;;;;;17.93;58.93;99419.91;1720298;83;27614;-42
2022/06/05 03:34:02;;;;;;;3.30;2.22;;;;;;;17.96;58.91;99417.74;1720250;83;20921;-42
2022/06/05 03:36:31;;;;;;;3.12;2.58;;;;;;;17.97;58.75;99424.76;1720136;83;21376;-42
2022/06/05 03:38:58;;;;;;;4.28;2.50;;;;;;;17.98;58.14;99428.48;1720216;83;21032;-43
2022/06/05 03:41:25;;;;;;;2.70;2.40;;;;;;;18.00;57.95;99437.68;1720273;83;21839;-42
2022/06/05 03:43:54;;;;;;;4.75;2.60;;;;;;;18.00;58.08;99443.95;1720137;83;20996;-42
2022/06/05 03:46:21;;;;;;;6.50;3.33;;;;;;;17.99;58.23;99447.88;1720113;83;20913;-42
2022/06/05 03:48:48;;;;;;;4.25;3.65;;;;;;;17.94;58.46;99448.90;1714696;82;21033;-42
2022/06/05 03:51:21;;;;;;;7.75;3.50;;;;;;;17.87;58.32;99442.09;1701862;84;21025;-42
2022/06/05 03:53:48;;;;;;;5.37;3.58;;;;;;;17.79;58.47;99439.44;1720327;82;21196;-42
2022/06/05 03:56:22;;;;;;;5.03;3.47;;;;;;;17.77;58.29;99443.75;1691366;84;20972;-42
2022/06/05 03:58:51;;;;;;;4.35;3.35;;;;;;;17.73;58.53;99449.27;1691215;84;21068;-42
2022/06/05 04:01:21;;;;;;;4.67;3.42;;;;;;;17.74;58.39;99446.72;1691302;84;20983;-42
2022/06/05 04:03:48;;;;;;;6.72;3.92;;;;;;;17.77;58.52;99455.50;1691712;84;20991;-43
2022/06/05 04:06:21;;;;;;;4.33;3.50;;;;;;;17.78;58.27;99462.55;1691321;84;23141;-42
2022/06/05 04:08:49;;;;;;;7.75;4.30;;;;;;;17.80;58.33;99461.56;1686292;85;21045;-42
2022/06/05 04:11:18;;;;;;;7.20;3.98;;;;;;;17.78;58.19;99471.36;1697110;84;21104;-42
2022/06/05 04:13:45;;;;;;;6.05;3.47;;;;;;;17.75;58.11;99470.23;1697189;84;20973;-42
2022/06/05 04:16:20;;;;;;;6.20;3.50;;;;;;;17.74;57.63;99471.41;1696996;84;20996;-42
2022/06/05 04:18:47;;;;;;;7.20;3.60;;;;;;;17.73;57.48;99471.21;1697125;84;21229;-42
2022/06/05 04:21:25;;;;;;;7.25;3.17;;;;;;;17.74;57.43;99475.52;1697310;84;20922;-42
2022/06/05 04:23:52;;;;;;;3.33;3.02;;;;;;;17.72;57.72;99475.13;1696808;84;21001;-42
2022/06/05 04:26:22;;;;;;;4.83;3.20;;;;;;;17.69;57.44;99482.02;1697172;84;21056;-42
2022/06/05 04:28:56;;;;;;;4.70;3.45;;;;;;;17.65;57.56;99486.17;1697252;84;21101;-42
2022/06/05 04:31:24;;;;;;;6.95;3.80;;;;;;;17.66;57.60;99484.99;1697019;84;21264;-42
2022/06/05 04:33:54;;;;;;;4.55;3.50;;;;;;;17.65;57.18;99487.54;1697247;84;21538;-42
2022/06/05 04:36:21;;;;;;;5.12;3.95;;;;;;;17.66;56.75;99484.21;1697406;84;21564;-42
2022/06/05 04:38:48;;;;;;;8.28;4.05;;;;;;;17.68;56.69;99493.58;1697236;84;21112;-42
2022/06/05 04:41:15;;;;;;;6.03;4.00;;;;;;;17.69;56.73;99499.25;1697508;84;21552;-42
2022/06/05 04:43:44;;;;;;;3.72;3.20;;;;;;;17.72;56.49;99495.70;1697323;84;21134;-42
2022/06/05 04:46:11;;;;;;;4.75;4.12;;;;;;;17.78;56.39;99498.20;1697066;84;20961;-43
2022/06/05 04:48:39;;;;;;;5.20;3.80;;;;;;;17.84;56.76;99499.14;1697010;84;20985;-42
2022/06/05 04:51:08;;;;;;;5.47;3.90;;;;;;;17.88;56.50;99495.77;1697121;84;21123;-42
2022/06/05 04:53:35;;;;;;;5.20;3.80;;;;;;;17.92;56.43;99496.52;1699227;84;21079;-43
2022/06/05 04:56:13;;;;;;;6.97;4.15;;;;;;;17.95;56.66;99498.47;1720280;83;21319;-42
2022/06/05 04:58:41;;;;;;;5.92;4.50;;;;;;;17.99;56.75;99498.62;1691292;84;21043;-42
2022/06/05 05:01:12;;;;;;;7.33;5.10;;;;;;;18.02;56.65;99497.02;1691383;84;21099;-43
2022/06/05 05:03:40;;;;;;;7.00;5.00;;;;;;;18.05;56.89;99498.97;1690723;84;21585;-42
2022/06/05 05:06:09;;;;;;;7.00;4.92;;;;;;;18.08;56.52;99500.89;1691564;84;20908;-42
2022/06/05 05:08:37;;;;;;;7.17;4.50;;;;;;;18.10;56.66;99505.39;1691293;84;21724;-42
2022/06/05 05:11:05;;;;;;;8.83;4.70;;;;;;;18.13;56.81;99504.56;1691281;84;20973;-42
2022/06/05 05:13:32;;;;;;;6.37;4.55;;;;;;;18.14;56.61;99505.54;1691411;84;21530;-42
2022/06/05 05:15:59;;;;;;;7.67;4.37;;;;;;;18.17;56.98;99501.19;1691393;84;21114;-43
2022/06/05 05:18:27;;;;;;;5.08;4.10;;;;;;;18.17;57.13;99501.97;1691380;84;21515;-42
2022/06/05 05:20:54;;;;;;;6.15;4.20;;;;;;;18.16;57.31;99504.52;1691287;84;23141;-42
2022/06/05 05:23:21;;;;;;;5.72;4.20;;;;;;;18.15;57.19;99509.06;1691392;84;20996;-43
2022/06/05 05:25:48;;;;;;;6.03;3.98;;;;;;;18.15;57.64;99504.95;1691296;84;21330;-42
2022/06/05 05:28:16;;;;;;;6.62;4.20;;;;;;;18.16;57.74;99509.23;1691453;84;20956;-42
2022/06/05 05:30:45;;;;;;;4.42;3.60;;;;;;;18.16;57.96;99507.86;1691504;84;21099;-42
2022/06/05 05:33:13;;;;;;;4.87;3.47;;;;;;;18.15;58.02;99508.45;1691610;84;21134;-43
2022/06/05 05:35:40;;;;;;;5.65;4.25;;;;;;;18.22;57.87;99508.98;1691381;84;21031;-42
2022/06/05 05:38:07;;;;;;;6.45;4.45;;;;;;;18.28;57.87;99521.09;1691251;84;21574;-42
2022/06/05 05:43:20;;;;;;;7.17;4.80;;;;;;;18.34;57.87;99516.72;1691444;84;21521;-42
2022/06/05 05:45:49;;;;;;;6.83;4.30;;;;;;;18.36;57.78;99521.19;1688842;84;21205;-43
2022/06/05 05:48:17;;;;;;;7.15;5.35;;;;;;;18.40;58.13;99523.30;1675354;85;20984;-42
2022/06/05 05:50:45;;;;;;;5.62;4.12;;;;;;;18.43;57.97;99519.76;1675455;85;21055;-43
2022/06/05 05:53:13;;;;;;;6.00;4.33;;;;;;;18.45;57.97;99515.21;1672357;84;21073;-42
2022/06/05 05:55:42;;;;;;;5.65;3.75;;;;;;;18.48;58.20;99515.79;1718076;82;20989;-43
2022/06/05 05:58:10;;;;;;;5.55;4.15;;;;;;;18.51;58.51;99510.25;1717909;83;21242;-42
2022/06/05 06:00:37;;;;;;;6.37;4.08;;;;;;;18.54;58.61;99512.81;1717912;83;21068;-43
2022/06/05 06:03:04;;;;;;;5.78;4.00;;;;;;;18.56;58.85;99506.30;1713169;83;21632;-43
2022/06/05 06:05:32;;;;;;;5.42;4.15;;;;;;;18.64;58.60;99511.30;1717872;83;21382;-43
2022/06/05 06:08:01;;;;;;;5.00;4.37;;;;;;;18.77;58.30;99510.78;1718105;83;20972;-43
2022/06/05 06:10:28;;;;;;;6.62;4.17;;;;;;;18.84;57.30;99509.31;1717798;83;21220;-43
2022/06/05 06:12:55;;;;;;;6.45;4.12;;;;;;;18.87;57.52;99514.00;1717624;83;21536;-42
2022/06/05 06:15:22;;;;;;;7.00;4.28;;;;;;;18.92;57.92;99510.80;1717814;83;21028;-43
2022/06/05 06:17:49;;;;;;;4.20;3.80;;;;;;;18.98;57.75;99512.66;1717863;83;21753;-43
2022/06/05 06:20:17;;;;;;;4.70;4.20;;;;;;;19.01;57.62;99515.19;1717807;83;21088;-43
2022/06/05 06:22:45;;;;;;;5.75;4.55;;;;;;;19.01;57.19;99511.86;1718019;83;21936;-43
2022/06/05 06:25:14;;;;;;;4.97;4.47;;;;;;;18.99;57.54;99511.48;1717603;83;20953;-43
2022/06/05 06:27:41;;;;;;;5.72;4.47;;;;;;;18.97;57.87;99513.09;1717414;83;20997;-42
2022/06/05 06:30:09;;;;;;;6.12;4.67;;;;;;;18.95;57.72;99514.09;1717677;83;21033;-43
2022/06/05 06:32:36;;;;;;;6.30;4.92;;;;;;;18.91;57.89;99514.73;1717526;83;21040;-43
2022/06/05 06:35:06;;;;;;;7.40;5.20;;;;;;;18.88;58.26;99519.06;1717608;83;21511;-43
2022/06/05 06:37:34;;;;;;;10.10;5.12;;;;;;;18.86;58.10;99512.44;1717777;83;20877;-42
2022/06/05 06:40:01;;;;;;;7.08;4.72;;;;;;;18.84;58.55;99509.31;1717583;83;21499;-43
2022/06/05 06:42:28;;;;;;;7.58;5.22;;;;;;;18.87;58.51;99518.12;1719011;82;21604;-43
2022/06/05 06:44:57;;;;;;;7.10;5.73;;;;;;;18.88;58.80;99510.82;1720136;83;21047;-43
2022/06/05 06:47:26;;;;;;;7.97;5.78;;;;;;;18.90;59.16;99509.05;1710385;82;21073;-43
2022/06/05 06:49:53;;;;;;;10.13;6.22;;;;;;;18.87;59.13;99507.91;1705228;84;21079;-43
2022/06/05 06:52:20;;;;;;;8.08;6.17;;;;;;;18.88;59.19;99503.20;1705055;84;21021;-42
2022/06/05 06:54:50;;;;;;;8.03;6.35;;;;;;;18.86;59.05;99498.11;1700105;83;21045;-42
2022/06/05 06:57:16;;;;;;;7.97;5.95;;;;;;;18.82;59.09;99503.47;1705428;84;21023;-43
2022/06/05 06:59:44;;;;;;;7.12;6.00;;;;;;;18.78;59.59;99504.11;1705142;84;21147;-42
2022/06/05 07:02:11;;;;;;;8.28;5.92;;;;;;;18.75;59.85;99510.41;1704967;84;21584;-43
2022/06/05 07:04:38;;;;;;;7.70;6.15;;;;;;;18.71;59.97;99510.45;1705219;84;21879;-42
2022/06/05 07:07:05;;;;;;;9.25;6.45;;;;;;;18.72;60.12;99509.86;1705103;84;21041;-42
2022/06/05 07:09:34;;;;;;;7.40;6.17;;;;;;;18.75;60.34;99515.30;1705000;84;21037;-42
2022/06/05 07:12:01;;;;;;;9.78;6.62;;;;;;;18.74;60.63;99504.72;1705291;84;21077;-42
2022/06/05 07:14:28;;;;;;;14.40;6.75;;;;;;;18.71;60.75;99502.22;1704917;84;20973;-43
2022/06/05 07:16:55;;;;;;;14.98;6.90;;;;;;;18.70;61.17;99506.14;1705069;84;21061;-43
2022/06/05 07:19:22;;;;;;;9.15;6.67;;;;;;;18.70;61.67;99508.11;1705058;84;21013;-42
2022/06/05 07:21:50;;;;;;;14.95;6.60;;;;;;;18.68;61.91;99506.38;1705224;84;21013;-42
2022/06/05 07:24:17;;;;;;;11.95;6.65;;;;;;;18.65;61.48;99511.50;1700538;84;21145;-43
2022/06/05 07:26:45;;;;;;;9.08;6.83;;;;;;;18.70;62.00;99508.11;1705310;84;21032;-43
2022/06/05 07:29:12;;;;;;;8.03;7.17;;;;;;;18.70;61.82;99511.64;1705310;84;21033;-42
2022/06/05 07:31:40;;;;;;;9.33;7.15;;;;;;;18.71;62.04;99511.83;1705299;84;20931;-42
2022/06/05 07:34:08;;;;;;;11.25;7.05;;;;;;;18.70;62.20;99511.64;1705314;84;21105;-42
2022/06/05 07:36:36;;;;;;;10.90;6.92;;;;;;;18.71;62.45;99513.20;1705239;84;21262;-42
2022/06/05 07:39:03;;;;;;;7.80;6.40;;;;;;;18.74;62.35;99506.09;1705259;84;20969;-42
2022/06/05 07:41:36;;;;;;;9.90;6.42;;;;;;;18.78;62.51;99508.23;1705290;84;21627;-42
2022/06/05 07:44:05;;;;;;;8.80;6.20;;;;;;;18.81;62.44;99510.14;1705311;84;20986;-42
2022/06/05 07:46:33;;;;;;;9.45;6.15;;;;;;;18.83;62.71;99509.91;1705245;84;21093;-42
2022/06/05 07:49:00;;;;;;;8.28;5.72;;;;;;;18.84;62.99;99512.84;1705021;84;23157;-43
2022/06/05 07:54:28;;;;;;;7.40;5.53;;;;;;;18.93;62.87;99504.87;1712001;83;20968;-42
2022/06/05 07:57:09;;;;;;;7.50;5.58;;;;;;;18.97;62.67;99503.48;1718456;83;21612;-42
2022/06/05 07:59:38;;;;;;;5.92;4.67;;;;;;;18.92;62.54;99506.09;1718554;83;21085;-42
2022/06/05 08:02:10;;;;;;;7.55;5.22;;;;;;;18.86;63.29;99506.94;1718931;83;21079;-43
2022/06/05 08:04:38;;;;;;;5.80;4.60;;;;;;;18.84;63.32;99506.56;1718585;83;20969;-43
2022/06/05 08:07:07;;;;;;;6.25;4.22;;;;;;;18.81;63.10;99510.14;1718507;83;20981;-42
2022/06/05 08:09:34;;;;;;;4.78;4.12;;;;;;;18.79;63.23;99516.62;1718347;83;21565;-43
2022/06/05 08:12:05;;;;;;;4.83;4.35;;;;;;;18.77;63.32;99516.28;1718580;83;20949;-42
2022/06/05 08:14:34;;;;;;;7.80;4.30;;;;;;;18.75;63.92;99515.90;1719057;83;21066;-42
2022/06/05 08:17:05;;;;;;;6.17;4.28;;;;;;;18.71;64.07;99515.95;1718907;83;21529;-43
2022/06/05 08:19:34;;;;;;;6.90;4.12;;;;;;;18.70;64.24;99517.12;1718830;83;21025;-43
2022/06/05 08:22:01;;;;;;;4.83;3.85;;;;;;;18.71;64.69;99514.57;1727909;82;20950;-43
2022/06/05 08:24:28;;;;;;;5.15;4.05;;;;;;;18.75;65.33;99513.15;1748592;82;21013;-43
2022/06/05 08:26:55;;;;;;;5.33;4.20;;;;;;;18.77;65.74;99519.80;1748725;82;21948;-42
2022/06/05 08:29:22;;;;;;;5.72;4.20;;;;;;;18.79;65.40;99513.88;1748531;82;20946;-42
2022/06/05 08:31:49;;;;;;;7.00;3.90;;;;;;;18.78;65.99;99511.76;1748629;82;21001;-43
2022/06/05 08:34:16;;;;;;;4.00;3.60;;;;;;;18.79;65.88;99512.51;1748526;82;20965;-43
2022/06/05 08:36:43;;;;;;;4.17;3.77;;;;;;;18.84;66.15;99510.09;1748629;82;21586;-42
2022/06/05 08:42:38;;;;;;;4.47;3.70;;;;;;;18.92;65.21;99502.56;1748502;82;20998;-43
2022/06/05 08:45:24;;;;;;;4.42;3.72;;;;;;;18.92;65.10;99509.42;1748736;82;20973;-43
2022/06/05 08:47:55;;;;;;;4.20;3.25;;;;;;;18.96;64.96;99514.28;1748483;82;20945;-43
2022/06/05 08:50:49;;;;;;;5.80;3.17;;;;;;;19.01;64.85;99509.70;1748664;82;21048;-43
2022/06/05 08:53:24;;;;;;;6.25;3.08;;;;;;;19.13;63.54;99511.88;1747969;82;21148;-43
2022/06/05 08:55:53;;;;;;;3.85;3.45;;;;;;;19.25;62.73;99516.05;1748573;82;21004;-42
2022/06/05 08:58:38;;;;;;;3.90;3.40;;;;;;;19.35;62.33;99511.00;1748868;82;20973;-43
2022/06/05 09:01:10;;;;;;;3.40;3.08;;;;;;;19.46;61.55;99519.30;1748728;82;20934;-42
2022/06/05 09:03:45;;;;;;;3.95;3.17;;;;;;;19.54;61.37;99525.48;1749041;82;21025;-43
2022/06/05 09:06:18;;;;;;;5.50;3.25;;;;;;;19.61;60.15;99520.45;1748595;82;23140;-43
2022/06/05 09:08:45;;;;;;;5.72;3.62;;;;;;;19.66;59.82;99524.11;1748758;82;21810;-43
2022/06/05 09:11:17;;;;;;;4.70;3.40;;;;;;;19.72;58.76;99523.83;1748588;82;20938;-43
2022/06/05 09:14:13;;;;;;;5.35;3.72;;;;;;;19.74;57.66;99520.08;1748281;82;21079;-43
2022/06/05 09:16:47;;;;;;;4.58;3.58;;;;;;;19.75;57.23;99528.52;1748527;82;21033;-43
2022/06/05 09:19:20;;;;;;;5.22;3.67;;;;;;;19.73;57.07;99527.55;1748868;81;21000;-43
2022/06/05 09:22:10;;;;;;;4.17;3.40;;;;;;;19.74;57.19;99531.08;1747170;82;21080;-43
2022/06/05 09:24:57;;;;;;;5.50;3.77;;;;;;;19.77;56.77;99526.11;1748811;81;21507;-43
2022/06/05 09:27:56;;;;;;;6.80;3.90;;;;;;;19.79;57.11;99535.52;1713067;82;21603;-43
2022/06/05 09:30:52;;;;;;;6.75;4.05;;;;;;;19.82;57.81;99537.42;1748107;82;21049;-42
2022/06/05 09:33:30;;;;;;;5.83;4.12;;;;;;;19.89;57.38;99535.95;1719566;82;21142;-43
2022/06/05 09:36:08;;;;;;;7.58;4.87;;;;;;;19.98;57.43;99537.38;1748333;82;21528;-42
2022/06/05 09:38:52;;;;;;;7.28;4.28;;;;;;;20.07;56.88;99537.02;1748783;82;21504;-43
2022/06/05 09:41:45;;;;;;;7.58;4.40;;;;;;;20.15;56.00;99534.31;1748559;82;21009;-43
2022/06/05 09:44:36;;;;;;;6.17;3.70;;;;;;;20.19;55.63;99528.74;1748462;82;21605;-42
2022/06/05 09:47:09;;;;;;;10.72;4.37;;;;;;;20.23;55.61;99535.77;1748579;82;21273;-43
2022/06/05 09:49:43;;;;;;;6.42;4.30;;;;;;;20.29;55.48;99537.42;1748323;82;21586;-43
2022/06/05 09:52:16;;;;;;;5.95;4.30;;;;;;;20.31;55.33;99539.97;1748776;82;20933;-43
2022/06/05 09:54:49;;;;;;;5.90;4.03;;;;;;;20.34;56.05;99536.97;1748335;81;21045;-43
2022/06/05 10:00:44;;;;;;;5.15;3.65;;;;;;;20.38;55.79;99534.33;1727506;82;21081;-43
2022/06/05 10:03:20;;;;;;;5.70;3.80;;;;;;;20.37;55.28;99534.17;1718703;83;20993;-43
2022/06/05 10:06:20;;;;;;;6.37;3.20;;;;;;;20.37;55.82;99540.27;1718723;83;21010;-43
2022/06/05 10:09:08;;;;;;;7.78;3.10;;;;;;;20.39;55.47;99540.61;1718704;83;21041;-43
2022/06/05 10:11:57;;;;;;;4.58;3.40;;;;;;;20.38;55.21;99532.20;1718681;83;21072;-43
2022/06/05 10:14:54;;;;;;;4.17;2.95;;;;;;;20.40;54.74;99531.16;1718830;83;21291;-43
2022/06/05 10:17:53;;;;;;;4.05;2.90;;;;;;;20.43;54.66;99539.95;1718580;83;21028;-43
2022/06/05 10:20:47;;;;;;;3.00;2.70;;;;;;;20.47;54.76;99537.93;1719169;83;20953;-42
2022/06/05 10:23:44;;;;;;;3.08;2.80;;;;;;;20.51;53.74;99534.50;1718918;83;21017;-43
2022/06/05 10:26:20;;;;;;;4.28;2.77;;;;;;;20.55;53.74;99536.59;1718988;83;21021;-43
2022/06/05 10:28:49;;;;;;;3.62;2.80;;;;;;;20.61;53.24;99534.13;1718928;83;21129;-43
2022/06/05 10:31:27;;;;;;;4.10;2.98;;;;;;;20.68;52.78;99536.73;1670448;83;21013;-43
2022/06/05 10:34:29;;;;;;;6.05;2.72;;;;;;;20.75;53.22;99534.63;1718790;83;21029;-43
2022/06/05 10:37:24;;;;;;;3.67;2.70;;;;;;;20.85;53.05;99537.00;1718875;83;21009;-43
2022/06/05 10:40:12;;;;;;;7.08;3.00;;;;;;;20.99;54.03;99535.92;1718845;83;21402;-43
2022/06/05 10:43:16;;;;;;;5.47;2.70;;;;;;;21.15;52.19;99543.70;1718850;83;21204;-43
2022/06/05 10:45:53;;;;;;;3.65;2.65;;;;;;;21.30;51.83;99538.63;1718767;83;21037;-43
2022/06/05 10:48:55;;;;;;;3.02;2.45;;;;;;;21.47;51.38;99543.59;1718964;83;21622;-43
2022/06/05 10:52:09;;;;;;;3.33;2.60;;;;;;;21.62;51.62;99546.20;1718829;83;21012;-43
2022/06/05 10:55:20;;;;;;;3.25;2.77;;;;;;;21.77;51.23;99540.53;1718769;83;20965;-43
2022/06/05 10:58:02;;;;;;;3.20;2.25;;;;;;;21.96;49.92;99536.16;1718899;83;23103;-43
2022/06/05 11:00:38;;;;;;;3.72;2.77;;;;;;;22.17;49.89;99541.77;1718732;83;21527;-43
2022/06/05 11:03:39;;;;;;;2.60;2.40;;;;;;;22.35;49.34;99542.08;1715303;83;21295;-43
2022/06/05 11:06:38;;;;;;;6.10;2.77;;;;;;;22.52;48.32;99539.44;1718950;83;20969;-43
2022/06/05 11:09:37;;;;;;;4.00;2.60;;;;;;;22.70;48.46;99545.88;1719015;83;21472;-43
2022/06/05 11:15:24;;;;;;;2.40;2.17;;;;;;;23.17;47.37;99540.00;1718757;83;21012;-43
2022/06/05 11:18:19;;;;;;;3.42;2.72;;;;;;;23.57;46.17;99544.56;1718835;83;21013;-43
2022/06/05 11:20:58;;;;;;;2.40;2.20;;;;;;;23.87;45.76;99539.67;1718889;83;21030;-43
2022/06/05 11:23:38;;;;;;;4.70;2.12;;;;;;;24.04;43.34;99543.84;1718867;83;21036;-43
2022/06/05 11:26:55;;;;;;;2.33;2.12;;;;;;;24.04;43.80;99542.45;1718776;83;21303;-43
2022/06/05 11:29:33;;;;;;;3.47;2.40;;;;;;;24.02;44.24;99541.52;1718520;83;20965;-43
2022/06/05 11:32:25;;;;;;;3.75;2.45;;;;;;;24.20;43.62;99536.20;1718746;83;21016;-43
2022/06/05 11:35:12;;;;;;;3.92;2.17;;;;;;;24.47;44.79;99537.05;1718694;83;21004;-43
2022/06/05 11:38:05;;;;;;;3.47;2.20;;;;;;;24.78;42.86;99547.46;1652343;83;21080;-43
2022/06/05 11:41:05;;;;;;;3.15;1.92;;;;;;;24.93;42.41;99540.20;1718085;83;21091;-43
2022/06/05 11:43:36;;;;;;;;;;;;;;;24.91;41.37;99535.71;1719696;83;20973;-43
2022/06/05 11:46:20;;;;;;;2.55;1.90;;;;;;;24.75;40.85;99541.41;1718826;83;20485;-43
2022/06/05 11:48:56;;;;;;;2.40;1.90;;;;;;;24.49;41.55;99547.70;1717428;83;21612;-43
2022/06/05 11:52:03;;;;;;;3.77;1.92;;;;;;;24.35;41.27;99548.19;1718604;83;21056;-43
2022/06/05 11:55:09;;;;;;;3.70;2.05;;;;;;;24.17;41.80;99548.77;1688802;83;21148;-44
2022/06/05 11:58:02;;;;;;;2.20;1.82;;;;;;;24.02;41.47;99553.20;1717228;83;21542;-43
2022/06/05 12:00:47;;;;;;;1.80;1.70;;;;;;;23.96;41.34;99541.16;1718459;83;21024;-43
2022/06/05 12:03:46;;;;;;;4.08;1.75;;;;;;;23.95;41.63;99547.30;1718675;83;21025;-43
2022/06/05 12:06:38;;;;;;;1.77;1.60;;;;;;;24.01;41.22;99540.59;1718821;83;21049;-43
2022/06/05 12:10:01;;;;;;;2.25;1.85;;;;;;;24.20;40.53;99543.13;1774643;79;22844;-43
2022/06/05 12:12:48;;;;;;;2.30;1.77;;;;;;;24.34;39.53;99546.63;1746038;82;20974;-43
2022/06/05 12:15:25;;;;;;;2.80;1.70;;;;;;;24.68;39.54;99546.01;1745839;82;23109;-43
2022/06/05 12:18:00;;;;;;;1.98;1.70;;;;;;;24.94;39.43;99554.21;1717223;82;21023;-43
2022/06/05 12:20:41;;;;;;;1.90;1.60;;;;;;;25.29;38.84;99545.95;1717006;82;21547;-43
2022/06/05 12:23:34;;;;;;;2.30;1.70;;;;;;;25.74;37.99;99537.70;1745942;82;21837;-43
2022/06/05 12:26:33;;;;;;;2.85;1.80;;;;;;;26.25;37.24;99537.38;1745956;82;20959;-43
2022/06/05 12:29:22;;;;;;;4.12;1.80;;;;;;;26.86;36.66;99532.77;1745790;82;23176;-43
2022/06/05 12:31:58;;;;;;;2.05;1.80;;;;;;;27.32;36.52;99538.22;1746087;82;21018;-43
2022/06/05 12:34:35;;;;;;;4.12;2.00;;;;;;;27.47;35.28;99531.52;1746046;82;20983;-43
2022/06/05 12:37:19;;;;;;;2.17;1.60;;;;;;;27.40;35.53;99521.34;1745335;82;21569;-43